CheckWX is a tool to help pilots better visualize weather data.  It is not intended as a substitute for an official pre-flight weather briefing.

21:41:53 UTC

FNHU METAR
Nova Lisboa Airport
Huambo, Angola
Current

6 hours ago

FNHU 231600Z 00000KT 8000 VCSH SCT018 FEW020CB BKN070 21/17 Q1019
Observed
Feb-23 @ 16:00 UTC
Visibility
7,998 meters
Flight Rules
MVFR
Cloud Levels
  • Scattered at 1,800' AGL
  • Few at 2,000' AGL
  • Broken at 7,000' AGL
Temperature
21°C / 70°F
Dewpoint
17°C / 63°F
Humidity
78%
Altimeter
30.09" Hg
Pressure
1018.92 hPa
Previous

7 hours ago

FNHU 231500Z 13006KT 5000 -RA BKN018 FEW026 22/17 Q1019
Observed
Feb-23 @ 15:00 UTC
Wind
  • 130° at 6 KTS
Visibility
5,005 meters
Flight Rules
MVFR
Conditions
Light Rain
Cloud Levels
  • Broken at 1,800' AGL
  • Few at 2,600' AGL
Temperature
22°C / 72°F
Dewpoint
17°C / 63°F
Humidity
73%
Altimeter
30.09" Hg
Pressure
1018.92 hPa
Previous

8 hours ago

FNHU 231400Z 03006KT 8000 VCSH BKN018 FEW026CB SCT070 24/16 Q1020
Observed
Feb-23 @ 14:00 UTC
Wind
  • 030° at 6 KTS
Visibility
7,998 meters
Flight Rules
MVFR
Cloud Levels
  • Broken at 1,800' AGL
  • Few at 2,600' AGL
  • Scattered at 7,000' AGL
Temperature
24°C / 75°F
Dewpoint
16°C / 61°F
Humidity
61%
Altimeter
30.12" Hg
Pressure
1019.92 hPa